WHITEHORSE,Y.T current weather conditions

sailwx.info

Wind from 190 at 4 knots

Air temperature -2.0° C
Visibility: greater than 13.0 NM
Dewpoint -4.0° C

Last reported at 2016-Dec-02 16:26 UTC.
Time now 2016-Dec-02 18:06 UTC

Location: N 60°43' W 135°04'.
View on Google Maps.

See reports from other nearby stations

  
Tides and Currents Weather Stations Pressure Air Temp Water Temp Dewpoint Dewpoint Depression Visibility Wind Speed Wind Dir Waves Ship Positions
date/time (UTC)wind fromknots sea level pressurealtimeterstation pressurevisibilityair tempwater tempwave heightnotes
2016-Dec-02 16:26 190 4 13.0-2.0
2016-Dec-02 16:00 13.0-2.0 Light snow.
2016-Dec-02 15:00 170 6 10.4-2.0 Light snow.
2016-Dec-02 14:00 170 13 3.5-2.0 Light snow. Light low drifting snow.
2016-Dec-02 13:08 170 8 1.7-2.0 Light snow. Light low drifting snow.
2016-Dec-02 13:00 170 9 0.9-2.0 Light snow. Light low drifting snow.
2016-Dec-02 12:00 180 6 0.9-2.0 Light snow. Light low drifting snow.
2016-Dec-02 11:00 190 9 2.6-2.0 Light snow. Light low drifting snow.
2016-Dec-02 10:00 190 7 3.5-3.0 Light snow. Light low drifting snow.
2016-Dec-02 09:17 180 11 gusting 17 3.5-2.0 Light snow. Light low drifting snow.
2016-Dec-02 09:00 180 13 gusting 20 2.2-2.0 Light snow. Light low drifting snow.
2016-Dec-02 08:41 170 17 2.2-2.0 Light snow. Light low drifting snow.
2016-Dec-02 08:13 180 14 10.4-2.0 Light snow. Light low drifting snow.
2016-Dec-02 08:00 190 13 13.0-2.0 Light low drifting snow.
2016-Dec-02 07:00 190 17 gusting 21 13.0-2.0 Light low drifting snow.
2016-Dec-02 06:00 170 18 gusting 22 13.0-2.0 Light low drifting snow.
2016-Dec-02 05:00 170 18 gusting 24 13.0-3.0 Light low drifting snow.
2016-Dec-02 04:00 170 21 13.0-3.0 Light low drifting snow.
2016-Dec-02 03:00 170 14 gusting 25 13.0-3.0 Light low drifting snow.
2016-Dec-02 02:00 160 14 gusting 21 13.0-2.0 Light low drifting snow.
2016-Dec-02 01:00 160 24 gusting 29 21.7-2.0 Light low drifting snow.
2016-Dec-02 00:00 160 14 34.8-2.0 Light low drifting snow.
2016-Dec-01 23:00 160 20 gusting 26 34.8-2.0 Light low drifting snow.
2016-Dec-01 22:00 170 15 34.8-2.0 Light low drifting snow.
2016-Dec-01 21:00 160 14 34.8-2.0 Light low drifting snow.
2016-Dec-01 20:00 150 17 gusting 24 30.4-2.0 Light low drifting snow.
2016-Dec-01 19:00 150 14 gusting 22 21.7-3.0 Light low drifting snow.
2016-Dec-01 18:00 150 20 gusting 27 21.7-3.0 Light low drifting snow.
2016-Dec-01 17:00 160 14 gusting 26 21.7-3.0 Light low drifting snow.
2016-Dec-01 16:00 160 15 gusting 27 8.7-4.0 Light low drifting snow.
2016-Dec-01 15:00 170 11 gusting 18 8.7-3.0 Light low drifting snow.
2016-Dec-01 14:00 170 20 13.0-3.0 Light low drifting snow.
2016-Dec-01 13:00 160 18 gusting 22 13.0-3.0 Light low drifting snow.
2016-Dec-01 12:00 150 15 gusting 25 13.0-2.0 Light low drifting snow.
2016-Dec-01 11:00 150 17 13.0-3.0
2016-Dec-01 09:00 170 13 13.0-4.0
2016-Dec-01 08:00 170 15 13.0-4.0
2016-Dec-01 07:00 170 14 13.0-5.0
2016-Dec-01 06:00 170 13 13.0-5.0
2016-Dec-01 05:00 180 13 13.0-6.0
2016-Dec-01 04:00 180 13 13.0-7.0
2016-Dec-01 03:00 170 14 13.0-4.0
2016-Dec-01 02:00 160 12 gusting 18 13.0-6.0
2016-Dec-01 01:00 170 9 21.7-5.0
2016-Dec-01 00:00 150 9 gusting 18 34.8-4.0
2016-Nov-30 23:00 160 13 34.8-4.0
2016-Nov-30 22:00 190 6 26.1-2.0
2016-Nov-30 21:00 160 11 26.1-2.0
2016-Nov-30 20:00 190 5 34.8-3.0
2016-Nov-30 19:00 160 7 26.1-2.0
2016-Nov-30 18:00 170 7 26.1-3.0